BAW171 KJFK-EGLL
Flight info
| Callsign | BAW171 |
|---|---|
| Flight time | N/A |
| Altitude | 35000 |
| Route | MERIT DCT HFD DCT PUT DCT WITCH DCT ALLEX N535B UMESI/M084F370 NATU OLGON/N0484F370 DCT ENJEX DCT AVZAC DCT INFEC DCT JETZI DCT AMFUL DCT ORZEB/N0455F230 P2 SIRIC |
| Aircraft | B77W/H-SDE1E2E3FGHIJ2J3J4J5M1RWXY/LB1D1 |
Departure
| Time | 2026-05-09 01:44 |
|---|---|
| Airport | John F. Kennedy International Airport (KJFK) |
Arrival
| Time | N/A |
|---|---|
| Airport | London Heathrow Airport (EGLL) |
| Time | Latitude | Longitude | Altitude | Speed | Heading |
|---|---|---|---|---|---|
| 2026-05-09 00:46 | 40.64074 | -73.78102 | 29 ft | 0 kts | 239° |
| 2026-05-09 01:29 | 40.64085 | -73.78080 | 31 ft | 4 kts | 229° |
| 2026-05-09 01:29 | 40.64105 | -73.78058 | 31 ft | 4 kts | 206° |
| 2026-05-09 01:30 | 40.64121 | -73.78049 | 31 ft | 4 kts | 189° |
| 2026-05-09 01:30 | 40.64147 | -73.78050 | 31 ft | 4 kts | 158° |
| 2026-05-09 01:30 | 40.64153 | -73.78053 | 31 ft | 0 kts | 151° |
| 2026-05-09 01:36 | 40.64149 | -73.78050 | 31 ft | 2 kts | 151° |
| 2026-05-09 01:37 | 40.64127 | -73.78034 | 31 ft | 5 kts | 150° |
| 2026-05-09 01:37 | 40.64085 | -73.78002 | 31 ft | 9 kts | 150° |
| 2026-05-09 01:37 | 40.64020 | -73.77958 | 30 ft | 12 kts | 161° |
| 2026-05-09 01:37 | 40.63927 | -73.77939 | 28 ft | 15 kts | 173° |
| 2026-05-09 01:38 | 40.63812 | -73.77921 | 28 ft | 17 kts | 173° |
| 2026-05-09 01:38 | 40.63690 | -73.77901 | 29 ft | 18 kts | 173° |
| 2026-05-09 01:38 | 40.63642 | -73.77893 | 28 ft | 0 kts | 173° |
| 2026-05-09 01:39 | 40.63631 | -73.77891 | 27 ft | 6 kts | 172° |
| 2026-05-09 01:39 | 40.63581 | -73.77864 | 27 ft | 9 kts | 140° |
| 2026-05-09 01:40 | 40.63542 | -73.77821 | 28 ft | 7 kts | 165° |
| 2026-05-09 01:40 | 40.63497 | -73.77835 | 28 ft | 7 kts | 210° |
| 2026-05-09 01:40 | 40.63450 | -73.77871 | 31 ft | 8 kts | 210° |
| 2026-05-09 01:40 | 40.63394 | -73.77909 | 30 ft | 10 kts | 193° |
| 2026-05-09 01:41 | 40.63340 | -73.77865 | 26 ft | 10 kts | 127° |
| 2026-05-09 01:41 | 40.63304 | -73.77793 | 28 ft | 10 kts | 122° |
| 2026-05-09 01:41 | 40.63267 | -73.77716 | 29 ft | 10 kts | 121° |
| 2026-05-09 01:41 | 40.63228 | -73.77629 | 28 ft | 12 kts | 121° |
| 2026-05-09 01:42 | 40.63181 | -73.77525 | 27 ft | 14 kts | 120° |
| 2026-05-09 01:42 | 40.63129 | -73.77408 | 26 ft | 16 kts | 121° |
| 2026-05-09 01:42 | 40.63071 | -73.77282 | 30 ft | 16 kts | 121° |
| 2026-05-09 01:42 | 40.63017 | -73.77165 | 29 ft | 12 kts | 121° |
| 2026-05-09 01:43 | 40.62954 | -73.77097 | 28 ft | 13 kts | 179° |
| 2026-05-09 01:43 | 40.62874 | -73.77147 | 27 ft | 13 kts | 210° |
| 2026-05-09 01:43 | 40.62830 | -73.77234 | 27 ft | 13 kts | 279° |
| 2026-05-09 01:43 | 40.62875 | -73.77343 | 28 ft | 19 kts | 301° |
| 2026-05-09 01:44 | 40.63111 | -73.77863 | 30 ft | 120 kts | 301° |
| 2026-05-09 01:44 | 40.63722 | -73.79213 | 103 ft | 214 kts | 301° |
| 2026-05-09 01:44 | 40.64489 | -73.80905 | 1507 ft | 205 kts | 301° |
| 2026-05-09 01:44 | 40.65207 | -73.82403 | 2819 ft | 191 kts | 300° |
| 2026-05-09 01:45 | 40.65708 | -73.84074 | 3073 ft | 208 kts | 267° |
| 2026-05-09 01:45 | 40.65173 | -73.85898 | 3326 ft | 232 kts | 227° |
| 2026-05-09 01:45 | 40.63857 | -73.87234 | 3774 ft | 245 kts | 220° |
| 2026-05-09 01:45 | 40.62554 | -73.88701 | 4504 ft | 246 kts | 230° |
| 2026-05-09 01:46 | 40.61415 | -73.90356 | 4986 ft | 246 kts | 234° |
| 2026-05-09 01:46 | 40.60639 | -73.92332 | 5001 ft | 246 kts | 261° |
| 2026-05-09 01:46 | 40.60768 | -73.94549 | 5235 ft | 248 kts | 291° |
| 2026-05-09 01:46 | 40.61773 | -73.96385 | 6011 ft | 249 kts | 309° |
| 2026-05-09 01:47 | 40.62709 | -73.98251 | 6597 ft | 244 kts | 283° |
| 2026-05-09 01:47 | 40.62775 | -74.00428 | 7344 ft | 239 kts | 256° |
| 2026-05-09 01:47 | 40.61967 | -74.02333 | 8116 ft | 245 kts | 229° |
| 2026-05-09 01:47 | 40.60469 | -74.03502 | 8825 ft | 262 kts | 202° |
| 2026-05-09 01:48 | 40.58582 | -74.03612 | 9515 ft | 284 kts | 176° |
| 2026-05-09 01:48 | 40.56728 | -74.02570 | 10156 ft | 307 kts | 150° |
| 2026-05-09 01:48 | 40.55230 | -74.00469 | 10771 ft | 324 kts | 126° |
| 2026-05-09 01:48 | 40.54143 | -73.97815 | 11039 ft | 334 kts | 118° |
| 2026-05-09 01:49 | 40.53515 | -73.94841 | 11015 ft | 344 kts | 94° |
| 2026-05-09 01:49 | 40.53755 | -73.91602 | 11036 ft | 372 kts | 74° |
| 2026-05-09 01:49 | 40.54529 | -73.88210 | 11041 ft | 399 kts | 69° |
| 2026-05-09 01:49 | 40.55452 | -73.84733 | 11006 ft | 403 kts | 68° |
| 2026-05-09 01:50 | 40.56397 | -73.81289 | 11002 ft | 405 kts | 67° |
| 2026-05-09 01:50 | 40.57563 | -73.77939 | 11018 ft | 402 kts | 55° |
| 2026-05-09 01:50 | 40.59136 | -73.74900 | 11016 ft | 403 kts | 49° |
| 2026-05-09 01:50 | 40.60837 | -73.71958 | 11027 ft | 404 kts | 48° |
| 2026-05-09 01:51 | 40.62564 | -73.69049 | 11020 ft | 401 kts | 47° |
| 2026-05-09 01:51 | 40.64278 | -73.66182 | 11009 ft | 397 kts | 47° |
| 2026-05-09 01:51 | 40.65989 | -73.63325 | 11071 ft | 398 kts | 47° |
| 2026-05-09 01:51 | 40.67706 | -73.60447 | 11790 ft | 400 kts | 47° |
| 2026-05-09 01:52 | 40.69414 | -73.57560 | 12741 ft | 398 kts | 47° |
| 2026-05-09 01:52 | 40.71161 | -73.54753 | 13568 ft | 394 kts | 39° |
| 2026-05-09 01:52 | 40.73247 | -73.52439 | 14255 ft | 391 kts | 27° |
| 2026-05-09 01:52 | 40.75564 | -73.50559 | 15009 ft | 392 kts | 23° |
| 2026-05-09 01:53 | 40.77934 | -73.48721 | 15783 ft | 397 kts | 23° |
| 2026-05-09 01:53 | 40.80304 | -73.46888 | 16475 ft | 402 kts | 23° |
| 2026-05-09 01:53 | 40.82741 | -73.45017 | 17027 ft | 406 kts | 23° |
| 2026-05-09 01:53 | 40.85199 | -73.43134 | 16993 ft | 408 kts | 23° |
| 2026-05-09 01:54 | 40.87653 | -73.41256 | 17004 ft | 407 kts | 23° |
| 2026-05-09 01:54 | 40.90111 | -73.39376 | 17000 ft | 407 kts | 23° |
| 2026-05-09 01:54 | 40.92557 | -73.37504 | 16995 ft | 406 kts | 23° |
| 2026-05-09 01:54 | 40.95018 | -73.35666 | 17001 ft | 403 kts | 19° |
| 2026-05-09 01:55 | 40.97568 | -73.34190 | 17012 ft | 398 kts | 14° |
| 2026-05-09 01:55 | 41.00125 | -73.32921 | 17013 ft | 397 kts | 13° |
| 2026-05-09 01:55 | 41.02726 | -73.31684 | 17003 ft | 397 kts | 12° |
| 2026-05-09 01:55 | 41.05359 | -73.30443 | 17006 ft | 396 kts | 12° |
| 2026-05-09 01:56 | 41.07929 | -73.29237 | 17015 ft | 396 kts | 12° |
| 2026-05-09 01:56 | 41.10527 | -73.28015 | 17010 ft | 396 kts | 12° |
| 2026-05-09 01:56 | 41.13128 | -73.26978 | 16990 ft | 380 kts | 360° |
| 2026-05-09 01:56 | 41.15714 | -73.27048 | 17204 ft | 371 kts | 346° |
| 2026-05-09 01:57 | 41.18335 | -73.27281 | 17849 ft | 386 kts | 355° |
| 2026-05-09 01:57 | 41.21036 | -73.26705 | 18674 ft | 400 kts | 8° |
| 2026-05-09 01:57 | 41.23671 | -73.25346 | 19405 ft | 414 kts | 19° |
| 2026-05-09 01:57 | 41.26160 | -73.23281 | 20105 ft | 428 kts | 29° |
| 2026-05-09 01:58 | 41.28470 | -73.20698 | 20768 ft | 441 kts | 37° |
| 2026-05-09 01:58 | 41.30492 | -73.17598 | 21392 ft | 454 kts | 46° |
| 2026-05-09 01:58 | 41.32399 | -73.14204 | 21996 ft | 462 kts | 47° |
| 2026-05-09 01:58 | 41.34300 | -73.10709 | 22618 ft | 468 kts | 47° |
| 2026-05-09 01:59 | 41.36209 | -73.07169 | 23319 ft | 472 kts | 47° |
| 2026-05-09 01:59 | 41.38125 | -73.03624 | 23949 ft | 475 kts | 47° |
| 2026-05-09 01:59 | 41.40073 | -73.00044 | 24494 ft | 479 kts | 47° |
| 2026-05-09 01:59 | 41.42050 | -72.96439 | 25014 ft | 484 kts | 47° |
| 2026-05-09 02:00 | 41.44050 | -72.92810 | 25513 ft | 488 kts | 46° |
| 2026-05-09 02:00 | 41.46070 | -72.89154 | 26011 ft | 492 kts | 46° |
| 2026-05-09 02:00 | 41.48112 | -72.85462 | 26523 ft | 496 kts | 46° |
| 2026-05-09 02:00 | 41.50142 | -72.81786 | 27021 ft | 500 kts | 46° |
| 2026-05-09 02:01 | 41.52239 | -72.77986 | 27499 ft | 505 kts | 47° |
| 2026-05-09 02:01 | 41.54329 | -72.74192 | 27959 ft | 509 kts | 47° |
| 2026-05-09 02:01 | 41.56411 | -72.70407 | 28404 ft | 513 kts | 47° |
| 2026-05-09 02:01 | 41.58532 | -72.66544 | 28823 ft | 517 kts | 47° |
| 2026-05-09 02:02 | 41.60661 | -72.62659 | 29247 ft | 521 kts | 47° |
| 2026-05-09 02:02 | 41.62809 | -72.58736 | 29669 ft | 524 kts | 47° |
| 2026-05-09 02:02 | 41.64969 | -72.54785 | 30041 ft | 529 kts | 47° |
| 2026-05-09 02:02 | 41.67147 | -72.50796 | 30355 ft | 533 kts | 47° |
| 2026-05-09 02:03 | 41.69338 | -72.46778 | 30664 ft | 535 kts | 47° |
| 2026-05-09 02:03 | 41.71538 | -72.42739 | 30961 ft | 538 kts | 47° |
| 2026-05-09 02:03 | 41.73750 | -72.38671 | 31180 ft | 542 kts | 47° |
| 2026-05-09 02:03 | 41.75979 | -72.34569 | 31390 ft | 546 kts | 47° |
| 2026-05-09 02:04 | 41.78219 | -72.30440 | 31608 ft | 550 kts | 47° |
| 2026-05-09 02:04 | 41.80466 | -72.26290 | 31905 ft | 551 kts | 47° |
| 2026-05-09 02:04 | 41.82715 | -72.22128 | 32198 ft | 551 kts | 47° |
| 2026-05-09 02:04 | 41.84958 | -72.17970 | 32754 ft | 548 kts | 47° |
| 2026-05-09 02:05 | 41.87189 | -72.13826 | 33173 ft | 547 kts | 47° |
| 2026-05-09 02:05 | 41.89424 | -72.09677 | 33419 ft | 549 kts | 47° |
| 2026-05-09 02:05 | 41.91639 | -72.05564 | 33644 ft | 552 kts | 47° |
| 2026-05-09 02:05 | 41.93891 | -72.01378 | 33925 ft | 553 kts | 47° |
| 2026-05-09 02:06 | 41.96137 | -71.97194 | 34188 ft | 553 kts | 47° |
| 2026-05-09 02:06 | 41.98382 | -71.93003 | 34466 ft | 552 kts | 48° |
| 2026-05-09 02:07 | 42.01771 | -71.86659 | 35015 ft | 548 kts | 48° |
| 2026-05-09 02:07 | 42.06240 | -71.78288 | 34979 ft | 550 kts | 48° |
| 2026-05-09 02:08 | 42.10656 | -71.69979 | 34976 ft | 542 kts | 48° |
| 2026-05-09 02:08 | 42.15003 | -71.61788 | 35007 ft | 540 kts | 49° |
| 2026-05-09 02:09 | 42.19378 | -71.53527 | 34966 ft | 540 kts | 49° |
| 2026-05-09 02:09 | 42.23741 | -71.45264 | 34972 ft | 540 kts | 49° |
| 2026-05-09 02:10 | 42.28096 | -71.36991 | 34979 ft | 541 kts | 49° |
| 2026-05-09 02:10 | 42.31529 | -71.30453 | 34999 ft | 542 kts | 49° |
| 2026-05-09 02:11 | 42.32189 | -71.29195 | 34989 ft | 542 kts | 49° |
| 2026-05-09 02:11 | 42.36548 | -71.20869 | 34993 ft | 542 kts | 49° |